Time;durP1;ratioP1;P1;durP2;ratioP2;P2;SDS_P1;SDS_P2;PMS_P1;PMS_P2;Temp;Humidity;BMP_temperature;BMP_pressure;BME280_temperature;BME280_humidity;BME280_pressure;Samples;Min_cycle;Max_cycle;Signal;HPM_P1;HPM_P2
2023/01/22 00:00:28;;;;;;;20.40;13.27;;;0.90;99.90;;;;;;5073108;28;20413;-80
2023/01/22 00:02:54;;;;;;;19.83;12.50;;;0.90;99.90;;;;;;5089017;28;20417;-79
2023/01/22 00:05:20;;;;;;;23.40;14.07;;;0.90;99.90;;;;;;5089996;28;20529;-79
2023/01/22 00:07:46;;;;;;;20.80;13.70;;;0.80;99.90;;;;;;5081041;28;20923;-80
2023/01/22 00:10:11;;;;;;;20.90;13.43;;;0.80;99.90;;;;;;5089157;28;20406;-79
2023/01/22 00:12:37;;;;;;;24.00;14.45;;;0.80;99.90;;;;;;5071493;28;20780;-79
2023/01/22 00:15:03;;;;;;;21.27;12.73;;;0.70;99.90;;;;;;5089070;28;20802;-79
2023/01/22 00:17:29;;;;;;;21.50;12.95;;;0.70;99.90;;;;;;5080615;28;20405;-79
2023/01/22 00:19:54;;;;;;;20.52;13.40;;;0.70;99.90;;;;;;5088575;28;20406;-79
2023/01/22 00:22:20;;;;;;;22.80;13.87;;;0.60;99.90;;;;;;5098423;28;20407;-79
2023/01/22 00:24:46;;;;;;;22.33;13.57;;;0.60;99.90;;;;;;5105599;28;20400;-79
2023/01/22 00:27:11;;;;;;;22.10;13.32;;;0.60;99.90;;;;;;5094688;28;20475;-79
2023/01/22 00:29:37;;;;;;;21.33;13.23;;;0.60;99.90;;;;;;5086707;28;20522;-79
2023/01/22 00:32:03;;;;;;;22.00;13.83;;;0.50;99.90;;;;;;5097915;28;20407;-79
2023/01/22 00:34:29;;;;;;;21.88;13.60;;;0.50;99.90;;;;;;5083312;28;20402;-79
2023/01/22 00:36:54;;;;;;;22.10;13.98;;;0.50;99.90;;;;;;5069848;28;20449;-79
2023/01/22 00:39:20;;;;;;;20.73;13.50;;;0.40;99.90;;;;;;5086846;28;20528;-80
2023/01/22 00:41:45;;;;;;;20.67;13.43;;;0.40;99.90;;;;;;5086237;28;20513;-78
2023/01/22 00:44:11;;;;;;;21.77;13.63;;;0.40;99.90;;;;;;5071734;28;20485;-79
2023/01/22 00:46:36;;;;;;;20.63;13.10;;;0.40;99.90;;;;;;5087060;28;20412;-79
2023/01/22 00:49:02;;;;;;;23.70;13.63;;;0.30;99.90;;;;;;5087086;28;20600;-79
2023/01/22 00:51:28;;;;;;;20.52;13.20;;;0.30;99.90;;;;;;5088001;28;20398;-79
2023/01/22 00:53:54;;;;;;;23.88;14.70;;;0.30;99.90;;;;;;5088956;28;20402;-79
2023/01/22 00:56:20;;;;;;;23.15;14.50;;;0.30;99.90;;;;;;5086163;28;20460;-79
2023/01/22 00:58:46;;;;;;;21.93;14.03;;;0.20;99.90;;;;;;5084954;28;20439;-79
2023/01/22 01:01:14;;;;;;;23.27;14.23;;;0.20;99.90;;;;;;5088604;28;20409;-79
2023/01/22 01:03:40;;;;;;;22.67;13.90;;;0.20;99.90;;;;;;5091062;28;20894;-79
2023/01/22 01:06:18;;;;;;;24.13;14.35;;;0.20;99.90;;;;;;5069746;28;20398;-79
2023/01/22 01:08:45;;;;;;;23.52;14.35;;;0.10;99.90;;;;;;5086082;28;20445;-79
2023/01/22 01:11:24;;;;;;;25.67;14.75;;;0.20;99.90;;;;;;5087337;28;20417;-79
2023/01/22 01:13:52;;;;;;;24.25;14.02;;;0.20;99.90;;;;;;5070677;28;20442;-79
2023/01/22 01:16:21;;;;;;;23.40;13.97;;;0.20;99.90;;;;;;5072777;28;20475;-79
2023/01/22 01:18:47;;;;;;;21.93;14.10;;;0.20;99.90;;;;;;5086233;28;20417;-79
2023/01/22 01:21:13;;;;;;;23.42;13.70;;;0.20;99.90;;;;;;5069117;28;20410;-79
2023/01/22 01:23:39;;;;;;;22.38;13.23;;;0.30;99.90;;;;;;5085540;28;20533;-79
2023/01/22 01:26:11;;;;;;;21.58;13.13;;;0.40;99.90;;;;;;5070388;28;20441;-79
2023/01/22 01:28:37;;;;;;;21.58;12.90;;;0.50;99.90;;;;;;5086974;28;20406;-80
2023/01/22 01:31:09;;;;;;;20.52;12.13;;;0.50;99.90;;;;;;5086137;28;20414;-79
2023/01/22 01:33:35;;;;;;;19.88;11.25;;;0.70;99.90;;;;;;5087132;28;20503;-79
2023/01/22 01:36:03;;;;;;;16.30;10.07;;;0.70;99.90;;;;;;5085964;28;20462;-79
2023/01/22 01:38:29;;;;;;;16.52;9.73;;;0.80;99.90;;;;;;5086700;28;20410;-79
2023/01/22 01:40:55;;;;;;;17.15;9.63;;;0.80;99.90;;;;;;5086973;28;20401;-79
2023/01/22 01:43:21;;;;;;;14.38;8.68;;;0.90;99.90;;;;;;5086328;28;20831;-79
2023/01/22 01:45:47;;;;;;;14.73;7.88;;;0.90;99.90;;;;;;5085984;28;20398;-79
2023/01/22 01:48:23;;;;;;;14.57;8.13;;;1.10;99.90;;;;;;5085860;28;20986;-79
2023/01/22 01:51:01;;;;;;;15.45;8.23;;;1.10;99.90;;;;;;5086091;28;20976;-79
2023/01/22 01:53:27;;;;;;;15.30;7.93;;;1.20;99.90;;;;;;5086684;28;20420;-79
2023/01/22 01:55:55;;;;;;;13.35;7.28;;;1.30;99.90;;;;;;5085132;28;20515;-79
2023/01/22 01:58:24;;;;;;;11.60;7.18;;;1.30;99.90;;;;;;5088084;28;20444;-79
2023/01/22 02:00:54;;;;;;;10.20;6.43;;;1.30;99.90;;;;;;5087721;28;20928;-79
2023/01/22 02:03:19;;;;;;;11.57;6.18;;;1.40;99.90;;;;;;5093849;28;20412;-79
2023/01/22 02:05:45;;;;;;;11.75;6.00;;;1.40;99.90;;;;;;5091403;28;20429;-79
2023/01/22 02:08:11;;;;;;;11.30;5.80;;;1.50;99.90;;;;;;5092143;28;20404;-79
2023/01/22 02:10:37;;;;;;;9.85;5.78;;;1.50;99.90;;;;;;5074975;28;20406;-79
2023/01/22 02:13:09;;;;;;;8.45;5.05;;;1.50;99.90;;;;;;5094139;28;20469;-79
2023/01/22 02:15:36;;;;;;;8.18;4.47;;;1.50;99.90;;;;;;5091645;28;20487;-78
2023/01/22 02:18:02;;;;;;;7.97;4.50;;;1.50;99.90;;;;;;5092527;28;20413;-79
2023/01/22 02:20:32;;;;;;;9.03;4.90;;;1.50;99.90;;;;;;5090080;28;20485;-79
2023/01/22 02:22:58;;;;;;;8.13;4.70;;;1.50;99.90;;;;;;5089745;28;20394;-79
2023/01/22 02:25:24;;;;;;;9.80;4.95;;;1.50;99.90;;;;;;5074134;28;20447;-79
2023/01/22 02:27:50;;;;;;;9.55;5.22;;;1.50;99.90;;;;;;5089566;28;20524;-79
2023/01/22 02:30:16;;;;;;;10.32;5.60;;;1.50;99.90;;;;;;5090368;28;20414;-79
2023/01/22 02:32:41;;;;;;;8.20;4.70;;;1.50;99.90;;;;;;5090135;28;20414;-79
2023/01/22 02:35:07;;;;;;;7.47;4.50;;;1.50;99.90;;;;;;5090091;28;20394;-79
2023/01/22 02:37:33;;;;;;;9.90;4.68;;;1.50;99.90;;;;;;5074495;28;20835;-79
2023/01/22 02:39:58;;;;;;;8.70;5.13;;;1.50;99.90;;;;;;5090654;28;20417;-80
2023/01/22 02:42:25;;;;;;;7.57;4.37;;;1.50;99.90;;;;;;5091593;28;20437;-79
2023/01/22 02:44:51;;;;;;;8.70;5.20;;;1.50;99.90;;;;;;5090570;28;20440;-79
2023/01/22 02:47:17;;;;;;;9.47;5.17;;;1.50;99.90;;;;;;5074905;28;20400;-79
2023/01/22 02:49:46;;;;;;;12.97;4.83;;;1.50;99.90;;;;;;5090521;28;20398;-79
2023/01/22 02:52:11;;;;;;;10.65;4.80;;;1.50;99.90;;;;;;5090229;28;20433;-79
2023/01/22 02:54:37;;;;;;;9.67;4.63;;;1.50;99.90;;;;;;5090443;28;20454;-79
2023/01/22 02:57:03;;;;;;;9.48;4.97;;;1.50;99.90;;;;;;5090365;28;20449;-79
2023/01/22 02:59:28;;;;;;;8.57;3.88;;;1.50;99.90;;;;;;5090624;28;20430;-79
2023/01/22 03:01:55;;;;;;;6.93;4.23;;;1.50;99.90;;;;;;5073295;28;20402;-79
2023/01/22 03:04:21;;;;;;;9.43;4.13;;;1.50;99.90;;;;;;5090473;28;20398;-79
2023/01/22 03:06:47;;;;;;;7.20;3.90;;;1.50;99.90;;;;;;5090378;28;20431;-79
2023/01/22 03:09:15;;;;;;;6.00;3.53;;;1.50;99.90;;;;;;5090087;28;20402;-80
2023/01/22 03:11:42;;;;;;;8.10;3.63;;;1.50;99.90;;;;;;5090339;28;20417;-79
2023/01/22 03:22:21;;;;;;;5.45;3.00;;;1.40;99.90;;;;;;5101460;28;20432;-79
2023/01/22 03:24:51;;;;;;;6.37;3.13;;;1.40;99.90;;;;;;5108105;28;20392;-79
2023/01/22 03:27:19;;;;;;;6.78;3.45;;;1.40;99.90;;;;;;5108814;28;20412;-79
2023/01/22 03:29:44;;;;;;;6.75;3.08;;;1.40;99.90;;;;;;5095923;28;20894;-79
2023/01/22 03:32:10;;;;;;;6.53;3.30;;;1.40;99.90;;;;;;5108617;28;20397;-79
2023/01/22 03:34:36;;;;;;;6.60;3.40;;;1.40;99.90;;;;;;5107260;28;20400;-79
2023/01/22 03:37:02;;;;;;;7.60;3.50;;;1.50;99.90;;;;;;5094926;28;20530;-79
2023/01/22 03:39:30;;;;;;;9.25;4.18;;;1.50;99.90;;;;;;5086464;28;20430;-80
2023/01/22 03:41:56;;;;;;;7.38;3.60;;;1.50;99.90;;;;;;5089605;28;20836;-79
2023/01/22 03:44:21;;;;;;;8.20;4.05;;;1.50;99.90;;;;;;5088179;28;20441;-79
2023/01/22 03:46:47;;;;;;;7.40;3.80;;;1.60;99.90;;;;;;5088976;28;20810;-79
2023/01/22 03:49:13;;;;;;;6.53;3.70;;;1.60;99.90;;;;;;5089188;28;20926;-79
2023/01/22 03:51:39;;;;;;;7.20;4.17;;;1.60;99.90;;;;;;5089729;28;20406;-79
2023/01/22 03:54:05;;;;;;;7.50;4.00;;;1.60;99.90;;;;;;5070502;28;20459;-79
2023/01/22 03:56:31;;;;;;;8.52;3.97;;;1.60;99.90;;;;;;5086827;28;20432;-79
2023/01/22 03:58:57;;;;;;;12.98;4.47;;;1.60;99.90;;;;;;5088224;28;20759;-79
2023/01/22 04:01:25;;;;;;;9.73;4.25;;;1.60;99.90;;;;;;5090046;28;20398;-79
2023/01/22 04:03:51;;;;;;;7.50;4.07;;;1.60;99.90;;;;;;5070979;28;20415;-79
2023/01/22 04:06:18;;;;;;;10.68;4.45;;;1.60;99.90;;;;;;5070809;28;20947;-79
2023/01/22 04:08:46;;;;;;;8.25;3.97;;;1.60;99.90;;;;;;5077427;28;20430;-79
2023/01/22 04:11:12;;;;;;;7.80;4.03;;;1.60;99.90;;;;;;5079180;28;20423;-79
2023/01/22 04:13:40;;;;;;;7.93;3.60;;;1.60;99.90;;;;;;5095065;28;20392;-79
2023/01/22 04:16:07;;;;;;;5.57;3.20;;;1.70;99.90;;;;;;5088369;28;20418;-79
2023/01/22 04:18:32;;;;;;;5.70;3.25;;;1.70;99.90;;;;;;5086944;28;20429;-79
2023/01/22 04:20:58;;;;;;;8.90;3.50;;;1.70;99.90;;;;;;5086988;28;21012;-79
2023/01/22 04:23:24;;;;;;;5.78;3.47;;;1.70;99.90;;;;;;5099049;28;20878;-79
2023/01/22 04:25:51;;;;;;;8.27;3.75;;;1.70;99.90;;;;;;5070538;28;20409;-79
2023/01/22 04:28:17;;;;;;;5.70;3.33;;;1.70;99.90;;;;;;5086880;28;20409;-79
2023/01/22 04:30:45;;;;;;;8.77;3.33;;;1.70;99.90;;;;;;5086378;28;20459;-80
2023/01/22 04:33:11;;;;;;;8.95;3.47;;;1.70;99.90;;;;;;5087470;28;20463;-79
2023/01/22 04:35:37;;;;;;;5.60;3.20;;;1.60;99.90;;;;;;5086946;28;20460;-80
2023/01/22 04:38:05;;;;;;;8.43;3.67;;;1.60;99.90;;;;;;5072969;28;20926;-79
2023/01/22 04:40:31;;;;;;;5.18;3.53;;;1.60;99.90;;;;;;5069391;28;20426;-79
2023/01/22 04:43:08;;;;;;;7.22;3.78;;;1.60;99.90;;;;;;5086513;28;20459;-79
2023/01/22 04:45:34;;;;;;;6.50;3.47;;;1.60;99.90;;;;;;5088573;28;20406;-79
2023/01/22 04:47:59;;;;;;;7.38;3.80;;;1.60;99.90;;;;;;5086576;28;20410;-79
2023/01/22 04:50:29;;;;;;;9.70;4.00;;;1.60;99.90;;;;;;5086247;28;20420;-79
2023/01/22 04:52:55;;;;;;;6.77;3.83;;;1.60;99.90;;;;;;5070569;28;20396;-80
2023/01/22 04:55:22;;;;;;;7.10;4.10;;;1.60;99.90;;;;;;5082504;28;20398;-79
2023/01/22 04:57:48;;;;;;;6.90;4.10;;;1.50;99.90;;;;;;5087182;28;20406;-79
2023/01/22 05:00:14;;;;;;;5.72;4.13;;;1.50;99.90;;;;;;5070422;28;20398;-79
2023/01/22 05:02:40;;;;;;;9.40;4.82;;;1.50;99.90;;;;;;5087401;28;20485;-79
2023/01/22 05:05:07;;;;;;;7.65;4.35;;;1.50;99.90;;;;;;5087776;28;20497;-79
2023/01/22 05:07:33;;;;;;;5.40;4.13;;;1.50;99.90;;;;;;5070398;28;20402;-79
2023/01/22 05:09:59;;;;;;;8.32;4.13;;;1.50;99.90;;;;;;5086648;28;20416;-79
2023/01/22 05:12:24;;;;;;;7.93;4.25;;;1.40;99.90;;;;;;5074367;28;20982;-79
2023/01/22 05:14:50;;;;;;;6.13;4.17;;;1.40;99.90;;;;;;5087169;28;20497;-79
2023/01/22 05:17:16;;;;;;;6.03;4.13;;;1.50;99.90;;;;;;5087287;28;20439;-79
2023/01/22 05:19:42;;;;;;;7.78;4.35;;;1.40;99.90;;;;;;5087568;28;20409;-79
2023/01/22 05:22:08;;;;;;;6.82;4.25;;;1.40;99.90;;;;;;5087590;28;20398;-79
2023/01/22 05:24:33;;;;;;;7.78;4.47;;;1.40;99.90;;;;;;5087561;28;20949;-79
2023/01/22 05:26:59;;;;;;;7.37;4.00;;;1.40;99.90;;;;;;5070166;28;20452;-79
2023/01/22 05:29:26;;;;;;;5.97;4.10;;;1.40;99.90;;;;;;5087092;28;20467;-79
2023/01/22 05:31:55;;;;;;;6.43;4.27;;;1.40;99.90;;;;;;5087500;28;20497;-80
2023/01/22 05:34:21;;;;;;;6.57;4.35;;;1.40;99.90;;;;;;5087536;28;20493;-79
2023/01/22 05:36:47;;;;;;;8.52;4.80;;;1.30;99.90;;;;;;5086203;28;20509;-79
2023/01/22 05:39:13;;;;;;;7.32;5.00;;;1.40;99.90;;;;;;5086574;28;20455;-79
2023/01/22 05:41:39;;;;;;;7.40;4.88;;;1.40;99.90;;;;;;5087035;28;20412;-79
2023/01/22 05:44:05;;;;;;;7.47;4.85;;;1.40;99.90;;;;;;5069732;28;20492;-79
2023/01/22 05:46:31;;;;;;;9.40;5.32;;;1.30;99.90;;;;;;5088192;28;20505;-79
2023/01/22 05:48:57;;;;;;;6.97;4.90;;;1.30;99.90;;;;;;5087050;28;20870;-79
2023/01/22 05:51:24;;;;;;;8.50;5.13;;;1.30;99.90;;;;;;5086062;28;20524;-79
2023/01/22 05:53:50;;;;;;;6.45;4.63;;;1.30;99.90;;;;;;5086307;28;20398;-79
2023/01/22 05:56:16;;;;;;;7.57;5.15;;;1.30;99.90;;;;;;5088902;28;20448;-79
2023/01/22 05:58:42;;;;;;;7.65;5.00;;;1.30;99.90;;;;;;5086878;28;20418;-79
2023/01/22 06:01:07;;;;;;;7.72;5.00;;;1.30;99.90;;;;;;5087053;28;20486;-79
2023/01/22 06:03:33;;;;;;;8.47;5.73;;;1.30;99.90;;;;;;5087685;28;20402;-78
2023/01/22 06:06:07;;;;;;;8.45;5.30;;;1.30;99.90;;;;;;5086905;28;20461;-79
2023/01/22 06:08:33;;;;;;;8.48;5.38;;;1.20;99.90;;;;;;5086540;28;20491;-79
2023/01/22 06:11:09;;;;;;;9.55;5.53;;;1.20;99.90;;;;;;5077646;28;20399;-79
2023/01/22 06:13:35;;;;;;;8.23;5.70;;;1.20;99.90;;;;;;5096137;28;20398;-79
2023/01/22 06:16:01;;;;;;;7.68;5.57;;;1.20;99.90;;;;;;5086432;28;20483;-79
2023/01/22 06:18:27;;;;;;;8.65;5.65;;;1.20;99.90;;;;;;5086496;28;20398;-79
2023/01/22 06:20:57;;;;;;;9.70;5.40;;;1.20;99.90;;;;;;5086491;28;20402;-79
2023/01/22 06:23:24;;;;;;;7.90;5.33;;;1.20;99.90;;;;;;5086512;28;20430;-79
2023/01/22 06:25:54;;;;;;;10.30;5.75;;;1.20;99.90;;;;;;5086195;28;20938;-79
2023/01/22 06:28:21;;;;;;;9.45;5.78;;;1.20;99.90;;;;;;5085606;28;20967;-79
2023/01/22 06:30:46;;;;;;;9.77;5.63;;;1.20;99.90;;;;;;5086168;28;20481;-80
2023/01/22 06:33:12;;;;;;;9.73;5.60;;;1.20;99.90;;;;;;5087529;28;20503;-79
2023/01/22 06:35:37;;;;;;;9.80;6.07;;;1.20;99.90;;;;;;5071543;28;20901;-79
2023/01/22 06:38:03;;;;;;;7.88;5.93;;;1.10;99.90;;;;;;5090939;28;20404;-79
2023/01/22 06:40:29;;;;;;;7.63;5.72;;;1.20;99.90;;;;;;5088446;28;20771;-80
2023/01/22 06:42:56;;;;;;;7.97;6.17;;;1.20;99.90;;;;;;5073790;28;20403;-79
2023/01/22 06:45:22;;;;;;;8.73;5.93;;;1.20;99.90;;;;;;5088440;28;20399;-79
2023/01/22 06:47:48;;;;;;;9.90;6.10;;;1.20;99.90;;;;;;5091233;28;20407;-79
2023/01/22 06:50:14;;;;;;;10.13;6.37;;;1.20;99.90;;;;;;5091960;28;20398;-79
2023/01/22 06:52:40;;;;;;;7.83;6.20;;;1.20;99.90;;;;;;5094403;28;20450;-79
2023/01/22 06:55:05;;;;;;;9.73;6.30;;;1.20;99.90;;;;;;5092169;28;20834;-79
2023/01/22 06:57:31;;;;;;;9.63;6.40;;;1.20;99.90;;;;;;5094840;28;20435;-79
2023/01/22 06:59:57;;;;;;;8.88;5.65;;;1.20;99.90;;;;;;5091890;28;20410;-80
2023/01/22 07:02:22;;;;;;;9.27;5.90;;;1.20;99.90;;;;;;5094845;28;20882;-79
2023/01/22 07:04:48;;;;;;;8.30;5.72;;;1.20;99.90;;;;;;5092530;28;20394;-79
2023/01/22 07:07:13;;;;;;;10.27;5.47;;;1.20;99.90;;;;;;5095566;28;21477;-79
2023/01/22 07:09:39;;;;;;;9.25;6.28;;;1.10;99.90;;;;;;5075618;28;20448;-79
2023/01/22 07:12:05;;;;;;;9.70;5.97;;;1.10;99.90;;;;;;5072320;28;20421;-79
2023/01/22 07:14:31;;;;;;;9.90;7.07;;;1.10;99.90;;;;;;5089034;28;20472;-79
2023/01/22 07:16:56;;;;;;;9.43;6.63;;;1.10;99.90;;;;;;5088286;28;20529;-79
2023/01/22 07:19:22;;;;;;;9.32;7.40;;;1.10;99.90;;;;;;5089604;28;20923;-79
2023/01/22 07:21:48;;;;;;;11.73;8.10;;;1.10;99.90;;;;;;5072363;28;20909;-79
2023/01/22 07:24:14;;;;;;;10.07;7.57;;;1.10;99.90;;;;;;5089260;28;20402;-79
2023/01/22 07:26:39;;;;;;;11.75;7.20;;;1.10;99.90;;;;;;5089398;28;20481;-79
2023/01/22 07:29:05;;;;;;;9.82;6.38;;;1.10;99.90;;;;;;5089413;28;20463;-79
2023/01/22 07:31:31;;;;;;;8.77;6.10;;;1.10;99.90;;;;;;5089256;28;20421;-79
2023/01/22 07:33:56;;;;;;;9.30;6.72;;;1.10;99.90;;;;;;5072555;28;20432;-80
2023/01/22 07:36:22;;;;;;;6.97;5.37;;;1.10;99.90;;;;;;5088509;28;20446;-79
2023/01/22 07:38:48;;;;;;;7.50;5.35;;;1.10;99.90;;;;;;5088738;28;20410;-79
2023/01/22 07:41:14;;;;;;;7.53;4.88;;;1.10;99.90;;;;;;5088577;28;20791;-79
2023/01/22 07:43:40;;;;;;;9.80;6.60;;;1.10;99.90;;;;;;5088371;28;20402;-79
2023/01/22 07:46:06;;;;;;;9.40;6.23;;;1.10;99.90;;;;;;5089045;28;20408;-79
2023/01/22 07:48:32;;;;;;;8.43;5.35;;;1.10;99.90;;;;;;5087251;28;20464;-79
2023/01/22 07:51:00;;;;;;;9.68;5.93;;;1.10;99.90;;;;;;5087349;28;20402;-79
2023/01/22 07:53:26;;;;;;;8.70;6.05;;;1.10;99.90;;;;;;5090358;28;20455;-79
2023/01/22 07:55:52;;;;;;;8.57;5.85;;;1.10;99.90;;;;;;5090732;28;20421;-79
2023/01/22 07:58:18;;;;;;;9.00;5.47;;;1.10;99.90;;;;;;5088862;28;20409;-79
2023/01/22 08:00:43;;;;;;;7.88;5.03;;;1.10;99.90;;;;;;5090091;28;20896;-80
2023/01/22 08:03:09;;;;;;;7.50;5.43;;;1.10;99.90;;;;;;5089484;28;20402;-79
2023/01/22 08:05:38;;;;;;;8.82;5.40;;;1.10;99.90;;;;;;5089450;28;20475;-79
2023/01/22 08:08:05;;;;;;;9.48;5.53;;;1.10;99.90;;;;;;5082604;28;20795;-80
2023/01/22 08:10:31;;;;;;;9.15;5.65;;;1.10;99.90;;;;;;5082297;28;20489;-81
2023/01/22 08:12:57;;;;;;;6.90;4.97;;;1.10;99.90;;;;;;5082350;28;20536;-80
2023/01/22 08:15:22;;;;;;;8.07;4.93;;;1.10;99.90;;;;;;5076113;28;20402;-80
2023/01/22 08:17:49;;;;;;;8.00;5.07;;;1.10;99.90;;;;;;5070588;28;20399;-80
2023/01/22 08:20:16;;;;;;;9.07;5.55;;;1.10;99.90;;;;;;5078185;28;20410;-80
2023/01/22 08:22:42;;;;;;;8.25;5.32;;;1.10;99.90;;;;;;5063678;28;20407;-80
2023/01/22 08:25:08;;;;;;;9.45;5.22;;;1.10;99.90;;;;;;5067019;28;20406;-80
2023/01/22 08:27:34;;;;;;;7.80;5.07;;;1.10;99.90;;;;;;5062867;28;20411;-80
2023/01/22 08:30:01;;;;;;;8.45;5.78;;;1.10;99.90;;;;;;5078171;28;20414;-80
2023/01/22 08:32:26;;;;;;;8.47;5.23;;;1.10;99.90;;;;;;5074250;28;20399;-79
2023/01/22 08:34:53;;;;;;;7.63;5.03;;;1.20;99.90;;;;;;5077840;28;20417;-80
2023/01/22 08:37:20;;;;;;;8.10;5.25;;;1.10;99.90;;;;;;5076846;28;20497;-79
2023/01/22 08:39:45;;;;;;;7.53;5.22;;;1.10;99.90;;;;;;5067188;28;20451;-80
2023/01/22 08:42:11;;;;;;;8.97;5.30;;;1.20;99.90;;;;;;5080253;28;20399;-80
2023/01/22 08:44:37;;;;;;;8.63;5.25;;;1.20;99.90;;;;;;5067613;28;20397;-79
2023/01/22 08:47:02;;;;;;;9.03;5.37;;;1.20;99.90;;;;;;5075237;28;20417;-80
2023/01/22 08:49:29;;;;;;;14.87;6.27;;;1.20;99.90;;;;;;5061861;28;20435;-80
2023/01/22 08:51:55;;;;;;;7.88;5.25;;;1.20;99.90;;;;;;5068675;28;20444;-79
2023/01/22 08:54:21;;;;;;;10.55;5.15;;;1.30;99.90;;;;;;5066018;28;20411;-79
2023/01/22 08:56:47;;;;;;;8.88;5.68;;;1.30;99.90;;;;;;5083887;28;20438;-80
2023/01/22 08:59:14;;;;;;;9.48;6.10;;;1.40;99.90;;;;;;5075776;28;20479;-79
2023/01/22 09:01:39;;;;;;;8.00;5.85;;;1.40;99.90;;;;;;5082504;28;20772;-80
2023/01/22 09:04:07;;;;;;;8.63;5.80;;;1.40;99.90;;;;;;5080635;28;20406;-80
2023/01/22 09:06:33;;;;;;;10.60;5.97;;;1.40;99.90;;;;;;5081765;28;20448;-80
2023/01/22 09:09:00;;;;;;;8.10;6.30;;;1.40;99.90;;;;;;5082754;28;20537;-81
2023/01/22 09:11:28;;;;;;;10.32;6.53;;;1.40;99.90;;;;;;5072420;28;20410;-81
2023/01/22 09:13:57;;;;;;;8.52;6.85;;;1.40;99.90;;;;;;5080939;28;20406;-80
2023/01/22 09:16:23;;;;;;;9.60;6.50;;;1.40;99.90;;;;;;5084794;28;20430;-80
2023/01/22 09:18:49;;;;;;;9.23;6.40;;;1.40;99.90;;;;;;5076017;28;20465;-79
2023/01/22 09:21:15;;;;;;;8.57;6.20;;;1.50;99.90;;;;;;5075059;28;20406;-79
2023/01/22 09:23:41;;;;;;;9.90;6.13;;;1.50;99.90;;;;;;5071678;28;20929;-79
2023/01/22 09:26:06;;;;;;;8.98;6.32;;;1.50;99.90;;;;;;5072094;28;20420;-79
2023/01/22 09:28:32;;;;;;;9.03;6.40;;;1.50;99.90;;;;;;5062858;28;20414;-80
2023/01/22 09:30:58;;;;;;;8.57;6.00;;;1.60;99.90;;;;;;5069201;28;20427;-78
2023/01/22 09:33:24;;;;;;;8.77;5.90;;;1.60;99.90;;;;;;5073530;28;20400;-79
2023/01/22 09:35:49;;;;;;;9.13;5.82;;;1.60;99.90;;;;;;5073585;28;20426;-79
2023/01/22 09:38:15;;;;;;;8.70;6.07;;;1.70;99.90;;;;;;5067117;28;20995;-79
2023/01/22 09:40:56;;;;;;;8.10;6.20;;;1.70;99.90;;;;;;5080007;28;20441;-78
2023/01/22 09:43:39;;;;;;;7.80;5.97;;;1.70;99.90;;;;;;5073821;28;20454;-78
2023/01/22 09:46:14;;;;;;;9.30;6.43;;;1.80;99.90;;;;;;5086019;28;20978;-78
2023/01/22 09:48:44;;;;;;;8.70;5.75;;;1.80;99.90;;;;;;5086487;28;20402;-79
2023/01/22 09:51:13;;;;;;;9.20;6.07;;;1.80;99.90;;;;;;5093646;28;20486;-79
2023/01/22 09:53:41;;;;;;;8.90;6.03;;;1.90;99.90;;;;;;5092350;28;20398;-79
2023/01/22 09:56:16;;;;;;;9.02;6.20;;;1.90;99.90;;;;;;5084804;28;20438;-79
2023/01/22 09:58:42;;;;;;;9.77;6.63;;;1.90;99.90;;;;;;5059491;28;20557;-79
2023/01/22 10:01:08;;;;;;;8.73;6.63;;;1.90;99.90;;;;;;5065423;28;20489;-79
2023/01/22 10:03:40;;;;;;;8.48;6.32;;;2.00;99.90;;;;;;5066084;28;20418;-79
2023/01/22 10:06:06;;;;;;;8.82;6.57;;;1.90;99.90;;;;;;5087643;28;20417;-79
2023/01/22 10:08:37;;;;;;;9.23;6.60;;;1.90;99.90;;;;;;5088838;28;20410;-79
2023/01/22 10:11:02;;;;;;;7.75;6.13;;;1.90;99.90;;;;;;5088262;28;20431;-79
2023/01/22 10:13:32;;;;;;;8.63;6.22;;;1.90;99.90;;;;;;5088114;28;20398;-79
2023/01/22 10:15:58;;;;;;;9.18;6.70;;;1.90;99.90;;;;;;5069313;28;20456;-80
2023/01/22 10:18:40;;;;;;;9.27;6.32;;;1.90;99.90;;;;;;5086491;28;20435;-79
2023/01/22 10:21:17;;;;;;;10.73;6.32;;;2.00;99.90;;;;;;5086388;28;20410;-79
2023/01/22 10:23:42;;;;;;;10.13;6.63;;;2.00;99.90;;;;;;5089875;28;20428;-79
2023/01/22 10:26:17;;;;;;;7.53;6.03;;;2.00;99.90;;;;;;5091022;28;20413;-79
2023/01/22 10:28:46;;;;;;;8.65;6.60;;;2.00;99.90;;;;;;5090301;28;20971;-79
2023/01/22 10:31:44;;;;;;;8.40;6.28;;;2.00;99.90;;;;;;5073625;28;20406;-79
2023/01/22 10:34:14;;;;;;;9.90;6.60;;;2.10;99.90;;;;;;5089199;28;20459;-79
2023/01/22 10:36:47;;;;;;;9.20;6.45;;;2.10;99.90;;;;;;5090164;28;20996;-79
2023/01/22 10:39:14;;;;;;;7.80;6.10;;;2.20;99.90;;;;;;5090589;28;20398;-79
2023/01/22 10:41:41;;;;;;;9.63;6.82;;;2.20;99.90;;;;;;5073061;28;20454;-79
2023/01/22 10:44:25;;;;;;;10.75;7.75;;;2.20;99.90;;;;;;5089265;28;20398;-79
2023/01/22 10:46:52;;;;;;;10.33;7.00;;;2.30;99.90;;;;;;5090292;28;20444;-78
2023/01/22 10:49:26;;;;;;;8.93;6.65;;;2.30;99.90;;;;;;5078533;28;20399;-79
2023/01/22 10:52:03;;;;;;;8.48;6.88;;;2.30;99.90;;;;;;5088645;28;20761;-79
2023/01/22 10:54:38;;;;;;;9.43;6.50;;;2.30;99.90;;;;;;5087132;28;20482;-79
2023/01/22 10:57:20;;;;;;;8.73;6.60;;;2.30;99.90;;;;;;5089550;28;20426;-79
2023/01/22 11:00:01;;;;;;;10.07;6.90;;;2.40;99.90;;;;;;5087421;28;20417;-79
2023/01/22 11:02:27;;;;;;;8.50;5.70;;;2.40;99.90;;;;;;5060301;28;20425;-79
2023/01/22 11:04:53;;;;;;;9.23;6.72;;;2.50;99.90;;;;;;5075628;28;20469;-80
2023/01/22 11:07:23;;;;;;;7.50;6.05;;;2.60;99.90;;;;;;5088125;28;20450;-79
2023/01/22 11:10:18;;;;;;;9.68;5.60;;;2.70;99.90;;;;;;5090074;28;20420;-79
2023/01/22 11:12:49;;;;;;;8.32;6.40;;;2.80;99.90;;;;;;5088077;28;20425;-79
2023/01/22 11:15:24;;;;;;;7.55;5.78;;;2.90;99.90;;;;;;5086696;28;20422;-78
2023/01/22 11:17:59;;;;;;;8.23;5.40;;;3.00;99.90;;;;;;5087298;28;20966;-78
2023/01/22 11:21:00;;;;;;;8.03;5.50;;;3.00;99.90;;;;;;5089567;28;20775;-79
2023/01/22 11:23:55;;;;;;;8.48;6.00;;;3.00;99.90;;;;;;5064967;28;20820;-79
2023/01/22 11:26:35;;;;;;;8.40;5.90;;;2.90;99.90;;;;;;5092905;28;20414;-79
2023/01/22 11:29:19;;;;;;;8.45;5.43;;;3.00;99.90;;;;;;5089026;28;20464;-78
2023/01/22 11:32:04;;;;;;;9.25;5.60;;;2.90;99.90;;;;;;5078696;28;20406;-79
2023/01/22 11:35:07;;;;;;;8.07;6.00;;;2.90;99.90;;;;;;5088367;28;20402;-79
2023/01/22 11:37:55;;;;;;;8.00;5.50;;;2.90;99.90;;;;;;5088162;28;20433;-79
2023/01/22 11:40:33;;;;;;;7.05;5.40;;;2.90;99.90;;;;;;5072599;28;20414;-77
2023/01/22 11:43:05;;;;;;;7.28;5.10;;;2.90;99.90;;;;;;5087240;28;20459;-79
2023/01/22 11:45:53;;;;;;;9.65;5.60;;;2.80;99.90;;;;;;5091120;28;20421;-79
2023/01/22 11:48:43;;;;;;;8.10;5.53;;;2.80;99.90;;;;;;5098340;27;20930;-79
2023/01/22 11:51:24;;;;;;;8.93;5.70;;;2.80;99.90;;;;;;5088511;28;20943;-79
2023/01/22 11:54:08;;;;;;;8.55;5.47;;;2.80;99.90;;;;;;5083797;28;20408;-78
2023/01/22 11:57:13;;;;;;;9.57;5.63;;;2.80;99.90;;;;;;5085707;28;20955;-78
2023/01/22 11:59:57;;;;;;;7.25;5.53;;;2.80;99.90;;;;;;5071251;28;20410;-78
2023/01/22 12:03:11;;;;;;;7.68;5.70;;;2.90;99.90;;;;;;5081079;28;20477;-78
2023/01/22 12:06:11;;;;;;;8.68;5.60;;;2.90;99.90;;;;;;5015979;28;20490;-82
2023/01/22 12:08:58;;;;;;;7.78;5.70;;;2.90;99.90;;;;;;5078959;28;20413;-78
2023/01/22 12:11:33;;;;;;;10.63;5.75;;;2.90;99.90;;;;;;5089040;28;20444;-78
2023/01/22 12:14:27;;;;;;;9.50;5.63;;;2.90;99.90;;;;;;5088553;28;20428;-78
2023/01/22 12:17:02;;;;;;;10.10;5.57;;;2.90;99.90;;;;;;5056890;28;20947;-78
2023/01/22 12:19:53;;;;;;;9.48;6.10;;;2.90;99.90;;;;;;5071762;28;20418;-78
2023/01/22 12:22:42;;;;;;;14.45;9.88;;;2.90;99.90;;;;;;5087606;28;20421;-78
2023/01/22 12:25:40;;;;;;;8.20;6.15;;;2.90;99.90;;;;;;5064300;28;20772;-78
2023/01/22 12:28:32;;;;;;;8.25;5.75;;;2.90;99.90;;;;;;5061806;28;20420;-78
2023/01/22 12:31:06;;;;;;;9.93;5.85;;;2.90;99.90;;;;;;5086282;28;20418;-78
2023/01/22 12:33:39;;;;;;;8.35;6.10;;;3.00;99.90;;;;;;5089738;28;20416;-78
2023/01/22 12:36:15;;;;;;;11.88;5.90;;;3.00;99.90;;;;;;5089132;28;20413;-78
2023/01/22 12:38:55;;;;;;;9.15;5.53;;;3.00;99.90;;;;;;5071493;28;20437;-78
2023/01/22 12:41:44;;;;;;;8.13;5.60;;;3.00;99.90;;;;;;5088393;28;20414;-78
2023/01/22 12:44:19;;;;;;;8.55;6.10;;;3.00;99.90;;;;;;5088161;28;20394;-78
2023/01/22 12:46:49;;;;;;;10.75;5.85;;;3.00;99.90;;;;;;5088171;28;20961;-78
2023/01/22 12:49:15;;;;;;;9.63;6.18;;;3.00;99.90;;;;;;5074911;28;20405;-79
2023/01/22 12:51:43;;;;;;;9.05;6.10;;;3.00;99.90;;;;;;5088758;28;20406;-78
2023/01/22 12:54:31;;;;;;;11.57;6.18;;;3.00;99.90;;;;;;5084172;28;20764;-78
2023/01/22 12:57:09;;;;;;;10.02;6.00;;;3.00;99.90;;;;;;5077367;28;21021;-78
2023/01/22 12:59:34;;;;;;;10.07;6.43;;;3.00;99.90;;;;;;5086863;28;20407;-78
2023/01/22 13:02:05;;;;;;;11.27;6.10;;;3.00;99.90;;;;;;5092557;28;20415;-78
2023/01/22 13:04:32;;;;;;;10.80;5.85;;;3.00;99.90;;;;;;5086319;28;20476;-78
2023/01/22 13:07:19;;;;;;;8.90;5.75;;;3.00;99.90;;;;;;5086955;28;20515;-79
2023/01/22 13:09:45;;;;;;;10.10;6.25;;;2.90;99.90;;;;;;5074329;28;20778;-79
2023/01/22 13:12:35;;;;;;;11.20;5.90;;;2.90;99.90;;;;;;5090941;28;20396;-78